createdAt,value
2018-07-07T00:01:39.942Z,16.60
2018-07-07T00:04:09.058Z,16.70
2018-07-07T00:06:38.169Z,16.60
2018-07-07T00:09:07.438Z,16.60
2018-07-07T00:11:36.550Z,16.70
2018-07-07T00:14:05.788Z,16.70
2018-07-07T00:16:35.349Z,16.60
2018-07-07T00:19:04.548Z,16.70
2018-07-07T00:21:33.662Z,16.70
2018-07-07T00:24:02.800Z,16.70
2018-07-07T00:26:32.240Z,16.80
2018-07-07T00:29:01.344Z,16.80
2018-07-07T00:31:30.441Z,16.80
2018-07-07T00:33:59.630Z,16.80
2018-07-07T00:36:28.704Z,16.70
2018-07-07T00:38:57.800Z,16.70
2018-07-07T00:41:26.953Z,16.70
2018-07-07T00:43:56.088Z,16.80
2018-07-07T00:46:25.183Z,16.80
2018-07-07T00:48:54.471Z,16.70
2018-07-07T00:53:52.246Z,16.80
2018-07-07T00:56:21.723Z,16.80
2018-07-07T00:58:50.960Z,16.80
2018-07-07T01:01:20.242Z,16.80
2018-07-07T01:03:49.452Z,16.80
2018-07-07T01:06:26.020Z,16.80
2018-07-07T01:11:23.966Z,16.80
2018-07-07T01:13:53.225Z,16.90
2018-07-07T01:16:22.538Z,16.80
2018-07-07T01:18:51.623Z,16.90
2018-07-07T01:21:20.764Z,16.80
2018-07-07T01:23:49.998Z,16.70
2018-07-07T01:26:19.113Z,16.70
2018-07-07T01:28:48.257Z,16.70
2018-07-07T01:31:17.500Z,16.70
2018-07-07T01:36:15.296Z,16.60
2018-07-07T01:38:44.503Z,16.60
2018-07-07T01:41:13.610Z,16.60
2018-07-07T01:43:42.738Z,16.60
2018-07-07T01:46:11.904Z,16.70
2018-07-07T01:48:41.088Z,16.60
2018-07-07T01:51:10.132Z,16.70
2018-07-07T01:53:39.312Z,16.60
2018-07-07T01:56:08.416Z,16.60
2018-07-07T01:58:37.508Z,16.70
2018-07-07T02:01:06.960Z,16.70
2018-07-07T02:03:36.240Z,16.70
2018-07-07T02:11:03.030Z,16.70
2018-07-07T02:13:32.126Z,16.80
2018-07-07T02:16:01.460Z,16.80
2018-07-07T02:18:30.524Z,16.80
2018-07-07T02:20:59.668Z,16.70
2018-07-07T02:23:28.848Z,16.70
2018-07-07T02:25:57.936Z,16.70
2018-07-07T02:28:27.044Z,16.80
2018-07-07T02:30:56.214Z,16.70
2018-07-07T02:33:25.334Z,16.80
2018-07-07T02:35:54.407Z,16.80
2018-07-07T02:38:23.589Z,16.80
2018-07-07T02:40:52.698Z,16.70
2018-07-07T02:43:21.856Z,16.70
2018-07-07T02:45:51.127Z,16.70
2018-07-07T02:48:20.210Z,16.70
2018-07-07T02:50:49.295Z,16.70
2018-07-07T02:53:18.543Z,16.70
2018-07-07T02:58:16.383Z,16.70
2018-07-07T03:00:45.765Z,16.80
2018-07-07T03:03:14.886Z,16.80
2018-07-07T03:05:44.108Z,16.80
2018-07-07T03:08:13.357Z,16.80
2018-07-07T03:10:42.421Z,16.80
2018-07-07T03:15:40.307Z,16.70
2018-07-07T03:18:09.451Z,16.70
2018-07-07T03:20:38.550Z,16.70
2018-07-07T03:23:07.776Z,16.70
2018-07-07T03:25:36.883Z,16.70
2018-07-07T03:28:06.020Z,16.70
2018-07-07T03:30:35.169Z,16.70
2018-07-07T03:33:04.275Z,16.60
2018-07-07T03:38:02.564Z,16.50
2018-07-07T03:40:31.593Z,16.60
2018-07-07T03:43:00.681Z,16.50
2018-07-07T03:45:29.905Z,16.50
2018-07-07T03:47:59.059Z,16.50
2018-07-07T03:50:28.179Z,16.50
2018-07-07T03:52:57.723Z,16.50
2018-07-07T03:55:26.790Z,16.40
2018-07-07T03:57:55.889Z,16.30
2018-07-07T04:00:25.125Z,16.30
2018-07-07T04:02:54.267Z,16.30
2018-07-07T04:05:23.361Z,16.30
2018-07-07T04:07:53.091Z,16.30
2018-07-07T04:10:22.211Z,16.40
2018-07-07T04:12:51.301Z,16.40
2018-07-07T04:15:20.541Z,16.30
2018-07-07T04:22:47.099Z,16.40
2018-07-07T04:25:16.195Z,16.40
2018-07-07T04:30:14.021Z,16.40
2018-07-07T04:32:43.225Z,16.40
2018-07-07T04:35:12.342Z,16.50
2018-07-07T04:37:41.693Z,16.50
2018-07-07T04:40:10.891Z,16.40
2018-07-07T04:42:39.989Z,16.40
2018-07-07T04:45:09.223Z,16.50
2018-07-07T04:47:38.353Z,16.50
2018-07-07T04:52:36.606Z,16.50
2018-07-07T04:55:05.789Z,16.60
2018-07-07T04:57:34.870Z,16.60
2018-07-07T05:00:04.265Z,16.60
2018-07-07T05:02:33.393Z,16.70
2018-07-07T05:05:02.613Z,16.70
2018-07-07T05:07:31.839Z,16.80
2018-07-07T05:12:29.681Z,16.70
2018-07-07T05:14:58.923Z,16.80
2018-07-07T05:17:28.057Z,16.80
2018-07-07T05:19:57.155Z,16.80
2018-07-07T05:22:26.661Z,16.90
2018-07-07T05:24:55.767Z,16.90
2018-07-07T05:27:24.949Z,16.90
2018-07-07T05:29:54.590Z,17.00
2018-07-07T05:32:23.668Z,17.00
2018-07-07T05:34:52.777Z,17.00
2018-07-07T05:37:22.209Z,17.00
2018-07-07T05:39:51.281Z,17.10
2018-07-07T05:42:20.576Z,17.10
2018-07-07T05:44:50.358Z,17.10
2018-07-07T05:47:19.495Z,17.00
2018-07-07T05:49:48.590Z,17.10
2018-07-07T05:52:17.777Z,17.20
2018-07-07T05:54:46.853Z,17.20
2018-07-07T05:57:16.005Z,17.30
2018-07-07T05:59:45.219Z,17.30
2018-07-07T06:02:14.319Z,17.30
2018-07-07T06:04:43.407Z,17.30
2018-07-07T06:07:12.683Z,17.30
2018-07-07T06:09:42.055Z,17.40
2018-07-07T06:12:11.333Z,17.50
2018-07-07T06:14:40.502Z,17.50
2018-07-07T06:17:09.580Z,17.40
2018-07-07T06:19:38.765Z,17.40
2018-07-07T06:22:08.371Z,17.30
2018-07-07T06:24:37.424Z,17.40
2018-07-07T06:27:06.650Z,17.50
2018-07-07T06:29:36.225Z,17.40
2018-07-07T06:32:05.385Z,17.30
2018-07-07T06:34:34.500Z,17.30
2018-07-07T06:37:03.836Z,17.40
2018-07-07T06:39:32.941Z,17.50
2018-07-07T06:42:02.602Z,17.60
2018-07-07T06:44:31.898Z,17.60
2018-07-07T06:47:01.174Z,17.60
2018-07-07T06:49:30.250Z,17.60
2018-07-07T06:51:59.466Z,17.40
2018-07-07T06:54:28.595Z,17.50
2018-07-07T06:56:57.708Z,17.50
2018-07-07T06:59:27.194Z,17.50
2018-07-07T07:01:56.306Z,17.60
2018-07-07T07:04:25.409Z,17.70
2018-07-07T07:06:54.578Z,17.80
2018-07-07T07:09:23.681Z,17.80
2018-07-07T07:11:52.833Z,17.90
2018-07-07T07:14:22.080Z,18.00
2018-07-07T07:16:51.178Z,18.00
2018-07-07T07:19:20.226Z,18.10
2018-07-07T07:21:49.364Z,18.20
2018-07-07T07:24:18.509Z,18.20
2018-07-07T07:26:47.604Z,18.30
2018-07-07T07:29:16.835Z,18.30
2018-07-07T07:31:46.010Z,18.40
2018-07-07T07:36:45.295Z,18.60
2018-07-07T07:39:14.465Z,18.70
2018-07-07T07:41:44.138Z,18.80
2018-07-07T07:51:39.626Z,19.30
2018-07-07T07:54:08.757Z,19.30
2018-07-07T07:56:37.978Z,19.50
2018-07-07T07:59:07.103Z,19.60
2018-07-07T08:04:05.494Z,19.60
2018-07-07T08:06:34.569Z,19.70
2018-07-07T08:09:03.984Z,19.80
2018-07-07T08:11:33.203Z,20.10
2018-07-07T08:14:02.373Z,20.30
2018-07-07T08:16:31.721Z,20.40
2018-07-07T08:19:00.851Z,20.40
2018-07-07T08:21:29.946Z,20.40
2018-07-07T08:23:59.073Z,20.10
2018-07-07T08:26:28.391Z,19.90
2018-07-07T08:28:57.504Z,20.10
2018-07-07T08:31:26.588Z,20.20
2018-07-07T08:33:55.992Z,20.40
2018-07-07T08:36:25.148Z,20.60
2018-07-07T08:38:54.214Z,20.60
2018-07-07T08:41:23.617Z,20.80
2018-07-07T08:43:52.990Z,21.00
2018-07-07T08:46:22.080Z,21.10
2018-07-07T08:48:51.503Z,21.10
2018-07-07T08:51:20.624Z,21.30
2018-07-07T08:53:49.690Z,21.30
2018-07-07T08:56:19.022Z,21.50
2018-07-07T08:58:48.098Z,21.60
2018-07-07T09:01:17.204Z,21.70
2018-07-07T09:03:46.678Z,21.70
2018-07-07T09:06:15.774Z,21.60
2018-07-07T09:08:44.882Z,21.60
2018-07-07T09:11:14.933Z,21.50
2018-07-07T09:16:12.710Z,21.30
2018-07-07T09:18:42.422Z,21.30
2018-07-07T09:21:11.526Z,21.40
2018-07-07T09:23:40.614Z,21.30
2018-07-07T09:26:10.063Z,21.30
2018-07-07T09:28:39.257Z,21.40
2018-07-07T09:31:08.801Z,21.40
2018-07-07T09:33:38.603Z,21.50
2018-07-07T09:36:08.221Z,21.60
2018-07-07T09:38:37.331Z,21.60
2018-07-07T09:41:06.597Z,21.80
2018-07-07T09:43:35.696Z,21.90
2018-07-07T09:46:04.866Z,22.10
2018-07-07T09:48:34.012Z,22.30
2018-07-07T09:51:03.210Z,22.10
2018-07-07T09:53:32.399Z,22.30
2018-07-07T09:56:01.638Z,22.40
2018-07-07T09:58:30.770Z,22.70
2018-07-07T10:00:59.872Z,22.80
2018-07-07T10:03:29.042Z,23.00
2018-07-07T10:05:58.112Z,23.10
2018-07-07T10:08:27.220Z,23.30
2018-07-07T10:10:56.871Z,23.30
2018-07-07T10:13:25.972Z,23.40
2018-07-07T10:15:55.008Z,23.40
2018-07-07T10:18:24.241Z,23.50
2018-07-07T10:20:53.815Z,23.70
2018-07-07T10:25:51.829Z,23.80
2018-07-07T10:28:20.954Z,24.00
2018-07-07T10:30:50.047Z,24.10
2018-07-07T10:33:19.688Z,24.20
2018-07-07T10:38:17.561Z,24.30
2018-07-07T10:40:46.705Z,24.40
2018-07-07T10:43:15.813Z,24.60
2018-07-07T10:45:44.980Z,24.70
2018-07-07T10:48:14.165Z,24.80
2018-07-07T10:50:43.282Z,24.90
2018-07-07T10:53:12.362Z,24.90
2018-07-07T10:55:41.519Z,25.00
2018-07-07T10:58:10.620Z,25.10
2018-07-07T11:00:39.720Z,25.10
2018-07-07T11:03:08.956Z,25.10
2018-07-07T11:05:38.034Z,25.20
2018-07-07T11:08:07.302Z,25.30
2018-07-07T11:10:36.777Z,25.40
2018-07-07T11:13:06.274Z,25.60
2018-07-07T11:15:35.438Z,25.60
2018-07-07T11:20:33.263Z,25.90
2018-07-07T11:23:02.538Z,25.90
2018-07-07T11:25:31.818Z,26.10
2018-07-07T11:28:00.930Z,26.20
2018-07-07T11:30:30.027Z,26.30
2018-07-07T11:32:59.466Z,26.30
2018-07-07T11:35:28.599Z,26.30
2018-07-07T11:40:26.606Z,26.10
2018-07-07T11:42:55.733Z,26.20
2018-07-07T11:45:24.837Z,26.40
2018-07-07T11:47:54.630Z,26.50
2018-07-07T11:50:23.766Z,26.00
2018-07-07T11:52:52.856Z,26.30
2018-07-07T11:55:22.214Z,26.30
2018-07-07T11:57:51.382Z,26.20
2018-07-07T12:02:49.554Z,26.70
2018-07-07T12:05:18.702Z,26.90
2018-07-07T12:08:00.710Z,27.00
2018-07-07T12:10:17.890Z,27.00
2018-07-07T12:12:46.975Z,26.90
2018-07-07T12:15:16.135Z,27.10
2018-07-07T12:17:45.408Z,27.00
2018-07-07T12:20:14.547Z,27.00
2018-07-07T12:22:43.699Z,27.10
2018-07-07T12:25:13.019Z,27.10
2018-07-07T12:27:42.131Z,27.10
2018-07-07T12:30:11.233Z,26.90
2018-07-07T12:32:40.400Z,27.10
2018-07-07T12:35:09.504Z,27.30
2018-07-07T12:37:38.619Z,27.50
2018-07-07T12:40:08.215Z,27.90
2018-07-07T12:42:37.323Z,27.90
2018-07-07T12:45:06.410Z,27.80
2018-07-07T12:47:36.061Z,27.40
2018-07-07T12:50:05.250Z,26.70
2018-07-07T12:52:34.355Z,26.50
2018-07-07T12:55:03.765Z,26.80
2018-07-07T12:57:32.872Z,26.90
2018-07-07T13:00:02.091Z,27.40
2018-07-07T13:02:31.501Z,27.60
2018-07-07T13:05:00.575Z,27.90
2018-07-07T13:07:29.697Z,28.00
2018-07-07T13:09:59.084Z,28.00
2018-07-07T13:12:28.251Z,28.10
2018-07-07T13:14:57.430Z,28.20
2018-07-07T13:17:26.709Z,28.30
2018-07-07T13:19:55.764Z,28.50
2018-07-07T13:22:24.939Z,28.60
2018-07-07T13:24:54.285Z,27.80
2018-07-07T13:27:23.856Z,27.40
2018-07-07T13:29:52.984Z,27.80
2018-07-07T13:32:22.136Z,28.00
2018-07-07T13:34:51.260Z,27.80
2018-07-07T13:37:20.383Z,27.80
2018-07-07T13:39:49.540Z,27.90
2018-07-07T13:42:18.621Z,27.80
2018-07-07T13:44:47.760Z,27.90
2018-07-07T13:47:17.043Z,27.70
2018-07-07T13:49:46.144Z,27.80
2018-07-07T13:52:15.226Z,28.10
2018-07-07T13:57:13.334Z,28.50
2018-07-07T13:59:42.515Z,28.50
2018-07-07T14:02:12.044Z,28.70
2018-07-07T14:04:41.115Z,28.90
2018-07-07T14:07:10.224Z,29.10
2018-07-07T14:09:40.113Z,28.90
2018-07-07T14:12:09.287Z,28.90
2018-07-07T14:14:38.451Z,29.10
2018-07-07T14:17:08.091Z,29.20
2018-07-07T14:19:37.143Z,29.10
2018-07-07T14:22:06.669Z,29.20
2018-07-07T14:27:04.939Z,29.40
2018-07-07T14:29:34.029Z,29.10
2018-07-07T14:32:03.555Z,29.20
2018-07-07T14:34:32.665Z,29.40
2018-07-07T14:37:01.773Z,29.50
2018-07-07T14:39:49.849Z,29.30
2018-07-07T14:42:50.610Z,29.20
2018-07-07T14:45:22.706Z,28.70
2018-07-07T14:47:52.811Z,28.20
2018-07-07T14:52:51.183Z,28.40
2018-07-07T14:55:21.725Z,28.60
2018-07-07T14:57:51.075Z,28.60
2018-07-07T15:00:22.295Z,28.50
2018-07-07T15:02:52.887Z,28.20
2018-07-07T15:05:22.015Z,28.00
2018-07-07T15:07:51.229Z,27.80
2018-07-07T15:10:20.637Z,27.50
2018-07-07T15:12:49.833Z,27.50
2018-07-07T15:15:19.281Z,26.80
2018-07-07T15:17:48.601Z,26.30
2018-07-07T15:20:17.714Z,26.30
2018-07-07T15:22:46.935Z,26.10
2018-07-07T15:25:16.266Z,26.10
2018-07-07T15:27:45.384Z,26.00
2018-07-07T15:30:14.573Z,25.70
2018-07-07T15:32:44.029Z,25.60
2018-07-07T15:35:13.139Z,25.40
2018-07-07T15:37:42.301Z,25.30
2018-07-07T15:42:40.183Z,25.10
2018-07-07T15:47:38.441Z,25.10
2018-07-07T15:50:07.615Z,25.10
2018-07-07T15:52:36.739Z,24.90
2018-07-07T15:55:06.945Z,24.80
2018-07-07T15:57:36.041Z,24.80
2018-07-07T16:00:06.309Z,24.80
2018-07-07T16:02:35.823Z,24.80
2018-07-07T16:05:05.339Z,24.90
2018-07-07T16:07:34.435Z,24.90
2018-07-07T16:10:04.292Z,24.90
2018-07-07T16:12:33.781Z,24.90
2018-07-07T16:15:02.908Z,24.90
2018-07-07T16:17:32.183Z,24.90
2018-07-07T16:20:01.345Z,24.80
2018-07-07T16:22:30.717Z,24.80
2018-07-07T16:25:00.080Z,24.70
2018-07-07T16:27:29.340Z,24.60
2018-07-07T16:29:58.639Z,24.50
2018-07-07T16:32:28.055Z,24.50
2018-07-07T16:34:57.929Z,24.50
2018-07-07T16:39:56.714Z,24.60
2018-07-07T16:42:25.961Z,24.70
2018-07-07T16:44:55.128Z,24.70
2018-07-07T16:49:53.417Z,25.10
2018-07-07T16:52:22.602Z,25.40
2018-07-07T16:54:52.071Z,25.80
2018-07-07T16:57:21.229Z,26.00
2018-07-07T16:59:50.355Z,26.20
2018-07-07T17:02:20.129Z,26.50
2018-07-07T17:04:50.236Z,26.60
2018-07-07T17:07:20.103Z,26.60
2018-07-07T17:09:49.829Z,26.80
2018-07-07T17:12:19.837Z,26.70
2018-07-07T17:14:49.513Z,26.60
2018-07-07T17:17:19.381Z,26.80
2018-07-07T17:19:48.572Z,27.00
2018-07-07T17:22:17.749Z,27.40
2018-07-07T17:24:47.077Z,27.10
2018-07-07T17:27:16.273Z,27.10
2018-07-07T17:29:45.507Z,27.00
2018-07-07T17:32:14.919Z,27.00
2018-07-07T17:39:41.560Z,27.20
2018-07-07T17:42:10.984Z,27.10
2018-07-07T17:44:40.101Z,27.00
2018-07-07T17:47:09.492Z,27.10
2018-07-07T17:49:39.222Z,27.30
2018-07-07T17:52:08.287Z,27.30
2018-07-07T17:54:37.688Z,27.20
2018-07-07T17:57:06.748Z,27.20
2018-07-07T17:59:36.325Z,27.20
2018-07-07T18:02:05.724Z,27.30
2018-07-07T18:04:35.203Z,27.50
2018-07-07T18:07:04.263Z,27.60
2018-07-07T18:09:33.505Z,27.50
2018-07-07T18:12:02.796Z,27.50
2018-07-07T18:14:31.831Z,27.50
2018-07-07T18:17:01.520Z,27.60
2018-07-07T18:19:30.588Z,27.70
2018-07-07T18:21:59.661Z,27.70
2018-07-07T18:24:29.009Z,27.50
2018-07-07T18:26:58.138Z,27.20
2018-07-07T18:29:27.252Z,27.00
2018-07-07T18:31:56.432Z,26.70
2018-07-07T18:34:25.504Z,26.40
2018-07-07T18:36:54.636Z,26.00
2018-07-07T18:39:24.155Z,25.60
2018-07-07T18:46:51.716Z,24.80
2018-07-07T18:49:20.874Z,24.60
2018-07-07T18:51:49.962Z,24.50
2018-07-07T18:54:19.233Z,24.30
2018-07-07T18:56:48.463Z,24.10
2018-07-07T18:59:17.528Z,23.90
2018-07-07T19:01:46.781Z,23.70
2018-07-07T19:04:15.906Z,23.50
2018-07-07T19:06:45.066Z,23.40
2018-07-07T19:09:15.985Z,23.30
2018-07-07T19:11:45.119Z,23.20
2018-07-07T19:14:14.255Z,23.10
2018-07-07T19:16:43.516Z,22.90
2018-07-07T19:19:12.810Z,22.80
2018-07-07T19:21:47.085Z,22.80
2018-07-07T19:24:21.650Z,22.70
2018-07-07T19:26:52.379Z,22.70
2018-07-07T19:29:22.466Z,22.60
2018-07-07T19:31:57.301Z,22.50
2018-07-07T19:34:31.635Z,22.50
2018-07-07T19:37:06.339Z,22.40
2018-07-07T19:39:35.527Z,22.40
2018-07-07T19:42:04.857Z,22.30
2018-07-07T19:44:34.026Z,22.30
2018-07-07T19:47:03.205Z,22.20
2018-07-07T19:52:01.963Z,22.00
2018-07-07T19:54:31.047Z,21.90
2018-07-07T19:59:29.167Z,21.70
2018-07-07T20:01:58.273Z,21.60
2018-07-07T20:04:27.513Z,21.60
2018-07-07T20:06:56.600Z,21.50
2018-07-07T20:09:25.735Z,21.50
2018-07-07T20:11:55.069Z,21.30
2018-07-07T20:14:26.640Z,21.30
2018-07-07T20:17:09.049Z,21.20
2018-07-07T20:20:58.279Z,21.20
2018-07-07T20:23:29.254Z,21.00
2018-07-07T20:28:38.822Z,20.80
2018-07-07T20:31:07.873Z,20.70
2018-07-07T20:33:37.070Z,20.70
2018-07-07T20:36:06.217Z,20.60
2018-07-07T20:38:35.302Z,20.50
2018-07-07T20:41:04.565Z,20.50
2018-07-07T20:43:33.887Z,20.40
2018-07-07T20:46:03.060Z,20.30
2018-07-07T20:48:32.268Z,20.20
2018-07-07T20:51:01.373Z,20.20
2018-07-07T20:58:27.946Z,20.00
2018-07-07T21:00:57.029Z,20.00
2018-07-07T21:03:26.291Z,19.90
2018-07-07T21:05:55.407Z,19.90
2018-07-07T21:08:24.526Z,19.80
2018-07-07T21:10:53.719Z,19.80
2018-07-07T21:13:22.795Z,19.70
2018-07-07T21:15:51.920Z,19.60
2018-07-07T21:20:49.815Z,19.50
2018-07-07T21:23:19.075Z,19.50
2018-07-07T21:25:48.260Z,19.50
2018-07-07T21:28:17.348Z,19.50
2018-07-07T21:30:46.459Z,19.40
2018-07-07T21:33:15.697Z,19.30
2018-07-07T21:35:44.817Z,19.20
2018-07-07T21:38:13.984Z,19.20
2018-07-07T21:40:43.887Z,19.20
2018-07-07T21:43:12.982Z,19.10
2018-07-07T21:45:42.144Z,19.10
2018-07-07T21:48:11.402Z,19.00
2018-07-07T21:50:40.554Z,19.00
2018-07-07T21:53:09.686Z,19.00
2018-07-07T21:55:39.286Z,18.90
2018-07-07T21:58:13.854Z,19.00
2018-07-07T22:02:02.635Z,18.90
2018-07-07T22:04:37.762Z,18.80
2018-07-07T22:07:13.308Z,18.80
2018-07-07T22:09:43.503Z,18.70
2018-07-07T22:12:12.718Z,18.80
2018-07-07T22:14:41.846Z,18.70
2018-07-07T22:17:11.308Z,18.70
2018-07-07T22:19:40.415Z,18.70
2018-07-07T22:22:10.393Z,18.70
2018-07-07T22:24:40.998Z,18.60
2018-07-07T22:27:11.296Z,18.50
2018-07-07T22:29:40.614Z,18.50
2018-07-07T22:32:15.193Z,18.40
2018-07-07T22:34:44.537Z,18.40
2018-07-07T22:37:13.676Z,18.40
2018-07-07T22:42:14.940Z,18.30
2018-07-07T22:44:45.133Z,18.30
2018-07-07T22:47:14.477Z,18.30
2018-07-07T22:49:43.614Z,18.30
2018-07-07T22:52:12.780Z,18.30
2018-07-07T22:57:10.797Z,18.20
2018-07-07T22:59:39.952Z,18.20
2018-07-07T23:02:09.221Z,18.20
2018-07-07T23:04:38.338Z,18.20
2018-07-07T23:07:07.963Z,18.10
2018-07-07T23:09:37.249Z,18.00
2018-07-07T23:12:06.419Z,18.00
2018-07-07T23:14:35.498Z,18.00
2018-07-07T23:17:06.322Z,18.10
2018-07-07T23:19:35.457Z,18.00
2018-07-07T23:29:31.122Z,17.90
2018-07-07T23:34:29.121Z,17.80
2018-07-07T23:39:27.326Z,17.80
2018-07-07T23:41:56.487Z,17.80
2018-07-07T23:44:25.591Z,17.80
2018-07-07T23:46:54.955Z,17.70
2018-07-07T23:49:24.136Z,17.70
2018-07-07T23:51:53.434Z,17.70
2018-07-07T23:54:22.774Z,17.70
2018-07-07T23:56:51.899Z,17.60
2018-07-07T23:59:21.025Z,17.60
